sensor_id;sensor_type;location;lat;lon;timestamp;P1;durP1;ratioP1;P2;durP2;ratioP2
82163;SDS011;71736;38.734;-9.138;2024-02-21T00:00:34;9.70;;;4.20;;
82163;SDS011;71736;38.734;-9.138;2024-02-21T00:02:59;6.00;;;3.60;;
82163;SDS011;71736;38.734;-9.138;2024-02-21T00:05:27;7.30;;;3.60;;
82163;SDS011;71736;38.734;-9.138;2024-02-21T00:07:52;6.20;;;3.20;;
82163;SDS011;71736;38.734;-9.138;2024-02-21T00:10:18;6.80;;;3.70;;
82163;SDS011;71736;38.734;-9.138;2024-02-21T00:12:43;8.00;;;3.60;;
82163;SDS011;71736;38.734;-9.138;2024-02-21T00:15:09;10.00;;;3.50;;
82163;SDS011;71736;38.734;-9.138;2024-02-21T00:17:35;6.70;;;3.50;;
82163;SDS011;71736;38.734;-9.138;2024-02-21T00:20:00;10.60;;;3.80;;
82163;SDS011;71736;38.734;-9.138;2024-02-21T00:22:26;6.30;;;3.40;;
82163;SDS011;71736;38.734;-9.138;2024-02-21T00:24:54;8.20;;;4.00;;
82163;SDS011;71736;38.734;-9.138;2024-02-21T00:27:19;7.10;;;3.20;;
82163;SDS011;71736;38.734;-9.138;2024-02-21T00:29:45;7.10;;;3.10;;
82163;SDS011;71736;38.734;-9.138;2024-02-21T00:32:10;9.40;;;3.80;;
82163;SDS011;71736;38.734;-9.138;2024-02-21T00:34:36;9.80;;;3.60;;
82163;SDS011;71736;38.734;-9.138;2024-02-21T00:37:01;7.90;;;3.60;;
82163;SDS011;71736;38.734;-9.138;2024-02-21T00:39:27;8.20;;;3.80;;
82163;SDS011;71736;38.734;-9.138;2024-02-21T00:41:52;8.20;;;4.00;;
82163;SDS011;71736;38.734;-9.138;2024-02-21T00:44:18;8.80;;;3.90;;
82163;SDS011;71736;38.734;-9.138;2024-02-21T00:46:44;9.10;;;4.30;;
82163;SDS011;71736;38.734;-9.138;2024-02-21T00:49:09;8.60;;;3.60;;
82163;SDS011;71736;38.734;-9.138;2024-02-21T00:51:34;8.10;;;3.70;;
82163;SDS011;71736;38.734;-9.138;2024-02-21T00:54:00;7.80;;;3.60;;
82163;SDS011;71736;38.734;-9.138;2024-02-21T00:56:26;7.70;;;3.70;;
82163;SDS011;71736;38.734;-9.138;2024-02-21T00:58:52;6.80;;;3.60;;
82163;SDS011;71736;38.734;-9.138;2024-02-21T01:01:21;7.00;;;3.80;;
82163;SDS011;71736;38.734;-9.138;2024-02-21T01:03:49;8.90;;;3.80;;
82163;SDS011;71736;38.734;-9.138;2024-02-21T01:06:16;8.60;;;4.60;;
82163;SDS011;71736;38.734;-9.138;2024-02-21T01:08:41;7.10;;;4.30;;
82163;SDS011;71736;38.734;-9.138;2024-02-21T01:11:07;9.20;;;3.70;;
82163;SDS011;71736;38.734;-9.138;2024-02-21T01:13:32;8.60;;;4.30;;
82163;SDS011;71736;38.734;-9.138;2024-02-21T01:15:58;8.80;;;4.70;;
82163;SDS011;71736;38.734;-9.138;2024-02-21T01:18:23;9.00;;;4.20;;
82163;SDS011;71736;38.734;-9.138;2024-02-21T01:20:49;10.10;;;5.60;;
82163;SDS011;71736;38.734;-9.138;2024-02-21T01:23:14;11.20;;;5.30;;
82163;SDS011;71736;38.734;-9.138;2024-02-21T01:25:40;11.60;;;4.50;;
82163;SDS011;71736;38.734;-9.138;2024-02-21T01:28:05;9.20;;;4.70;;
82163;SDS011;71736;38.734;-9.138;2024-02-21T01:30:30;11.70;;;5.00;;
82163;SDS011;71736;38.734;-9.138;2024-02-21T01:32:56;9.30;;;5.40;;
82163;SDS011;71736;38.734;-9.138;2024-02-21T01:35:21;11.00;;;4.90;;
82163;SDS011;71736;38.734;-9.138;2024-02-21T01:37:47;11.30;;;5.50;;
82163;SDS011;71736;38.734;-9.138;2024-02-21T01:40:12;10.10;;;4.70;;
82163;SDS011;71736;38.734;-9.138;2024-02-21T01:42:38;13.10;;;5.50;;
82163;SDS011;71736;38.734;-9.138;2024-02-21T01:45:07;10.50;;;4.60;;
82163;SDS011;71736;38.734;-9.138;2024-02-21T01:47:33;11.60;;;5.10;;
82163;SDS011;71736;38.734;-9.138;2024-02-21T01:49:59;13.30;;;5.30;;
82163;SDS011;71736;38.734;-9.138;2024-02-21T01:52:27;12.80;;;5.40;;
82163;SDS011;71736;38.734;-9.138;2024-02-21T01:54:54;12.80;;;4.80;;
82163;SDS011;71736;38.734;-9.138;2024-02-21T01:57:19;11.80;;;4.80;;
82163;SDS011;71736;38.734;-9.138;2024-02-21T01:59:45;11.50;;;5.10;;
82163;SDS011;71736;38.734;-9.138;2024-02-21T02:02:11;11.20;;;5.40;;
82163;SDS011;71736;38.734;-9.138;2024-02-21T02:04:38;10.10;;;5.00;;
82163;SDS011;71736;38.734;-9.138;2024-02-21T02:07:03;14.20;;;6.10;;
82163;SDS011;71736;38.734;-9.138;2024-02-21T02:09:30;11.30;;;5.60;;
82163;SDS011;71736;38.734;-9.138;2024-02-21T02:11:56;10.40;;;6.00;;
82163;SDS011;71736;38.734;-9.138;2024-02-21T02:14:23;13.50;;;5.90;;
82163;SDS011;71736;38.734;-9.138;2024-02-21T02:16:49;11.20;;;5.70;;
82163;SDS011;71736;38.734;-9.138;2024-02-21T02:19:14;9.00;;;5.60;;
82163;SDS011;71736;38.734;-9.138;2024-02-21T02:21:42;12.20;;;6.70;;
82163;SDS011;71736;38.734;-9.138;2024-02-21T02:24:19;15.70;;;7.20;;
82163;SDS011;71736;38.734;-9.138;2024-02-21T02:26:45;11.90;;;6.20;;
82163;SDS011;71736;38.734;-9.138;2024-02-21T02:29:10;12.80;;;6.20;;
82163;SDS011;71736;38.734;-9.138;2024-02-21T02:31:36;14.60;;;6.60;;
82163;SDS011;71736;38.734;-9.138;2024-02-21T02:34:03;12.20;;;6.50;;
82163;SDS011;71736;38.734;-9.138;2024-02-21T02:36:30;12.60;;;6.00;;
82163;SDS011;71736;38.734;-9.138;2024-02-21T02:38:57;11.50;;;5.00;;
82163;SDS011;71736;38.734;-9.138;2024-02-21T02:41:23;10.80;;;5.40;;
82163;SDS011;71736;38.734;-9.138;2024-02-21T02:43:48;12.40;;;5.40;;
82163;SDS011;71736;38.734;-9.138;2024-02-21T02:46:14;9.50;;;4.40;;
82163;SDS011;71736;38.734;-9.138;2024-02-21T02:48:39;9.90;;;5.20;;
82163;SDS011;71736;38.734;-9.138;2024-02-21T02:51:05;8.90;;;4.30;;
82163;SDS011;71736;38.734;-9.138;2024-02-21T02:53:30;11.90;;;4.90;;
82163;SDS011;71736;38.734;-9.138;2024-02-21T02:55:55;15.00;;;5.30;;
82163;SDS011;71736;38.734;-9.138;2024-02-21T02:58:21;9.10;;;4.40;;
82163;SDS011;71736;38.734;-9.138;2024-02-21T03:00:46;9.90;;;4.50;;
82163;SDS011;71736;38.734;-9.138;2024-02-21T03:03:12;10.30;;;4.90;;
82163;SDS011;71736;38.734;-9.138;2024-02-21T03:05:38;8.80;;;5.00;;
82163;SDS011;71736;38.734;-9.138;2024-02-21T03:08:03;10.70;;;5.60;;
82163;SDS011;71736;38.734;-9.138;2024-02-21T03:10:33;11.80;;;4.60;;
82163;SDS011;71736;38.734;-9.138;2024-02-21T03:12:59;9.60;;;5.30;;
82163;SDS011;71736;38.734;-9.138;2024-02-21T03:15:24;9.20;;;4.90;;
82163;SDS011;71736;38.734;-9.138;2024-02-21T03:17:50;10.80;;;4.80;;
82163;SDS011;71736;38.734;-9.138;2024-02-21T03:20:15;8.10;;;4.90;;
82163;SDS011;71736;38.734;-9.138;2024-02-21T03:22:41;10.10;;;4.90;;
82163;SDS011;71736;38.734;-9.138;2024-02-21T03:25:07;12.30;;;5.10;;
82163;SDS011;71736;38.734;-9.138;2024-02-21T03:27:36;10.70;;;5.50;;
82163;SDS011;71736;38.734;-9.138;2024-02-21T03:30:01;9.10;;;5.20;;
82163;SDS011;71736;38.734;-9.138;2024-02-21T03:32:27;9.30;;;5.50;;
82163;SDS011;71736;38.734;-9.138;2024-02-21T03:34:53;7.00;;;4.90;;
82163;SDS011;71736;38.734;-9.138;2024-02-21T03:37:20;9.80;;;5.00;;
82163;SDS011;71736;38.734;-9.138;2024-02-21T03:39:45;9.30;;;5.10;;
82163;SDS011;71736;38.734;-9.138;2024-02-21T03:42:11;9.80;;;5.10;;
82163;SDS011;71736;38.734;-9.138;2024-02-21T03:44:37;14.50;;;5.40;;
82163;SDS011;71736;38.734;-9.138;2024-02-21T03:47:02;7.90;;;4.70;;
82163;SDS011;71736;38.734;-9.138;2024-02-21T03:49:28;7.60;;;4.60;;
82163;SDS011;71736;38.734;-9.138;2024-02-21T03:51:54;10.50;;;5.50;;
82163;SDS011;71736;38.734;-9.138;2024-02-21T03:54:19;11.20;;;6.00;;
82163;SDS011;71736;38.734;-9.138;2024-02-21T03:56:45;11.10;;;5.40;;
82163;SDS011;71736;38.734;-9.138;2024-02-21T03:59:13;11.40;;;4.80;;
82163;SDS011;71736;38.734;-9.138;2024-02-21T04:01:38;10.40;;;5.40;;
82163;SDS011;71736;38.734;-9.138;2024-02-21T04:04:04;12.00;;;4.90;;
82163;SDS011;71736;38.734;-9.138;2024-02-21T04:06:29;8.00;;;4.60;;
82163;SDS011;71736;38.734;-9.138;2024-02-21T04:08:55;11.60;;;5.10;;
82163;SDS011;71736;38.734;-9.138;2024-02-21T04:11:21;9.20;;;5.20;;
82163;SDS011;71736;38.734;-9.138;2024-02-21T04:13:47;12.00;;;4.90;;
82163;SDS011;71736;38.734;-9.138;2024-02-21T04:16:15;10.80;;;5.50;;
82163;SDS011;71736;38.734;-9.138;2024-02-21T04:18:40;10.40;;;5.20;;
82163;SDS011;71736;38.734;-9.138;2024-02-21T04:21:06;10.90;;;5.20;;
82163;SDS011;71736;38.734;-9.138;2024-02-21T04:23:32;7.40;;;4.80;;
82163;SDS011;71736;38.734;-9.138;2024-02-21T04:25:57;9.70;;;4.20;;
82163;SDS011;71736;38.734;-9.138;2024-02-21T04:28:23;8.80;;;4.20;;
82163;SDS011;71736;38.734;-9.138;2024-02-21T04:30:48;10.70;;;5.80;;
82163;SDS011;71736;38.734;-9.138;2024-02-21T04:33:13;8.40;;;4.80;;
82163;SDS011;71736;38.734;-9.138;2024-02-21T04:35:39;8.10;;;5.10;;
82163;SDS011;71736;38.734;-9.138;2024-02-21T04:38:05;8.30;;;4.80;;
82163;SDS011;71736;38.734;-9.138;2024-02-21T04:40:30;8.30;;;3.90;;
82163;SDS011;71736;38.734;-9.138;2024-02-21T04:42:56;8.00;;;4.00;;
82163;SDS011;71736;38.734;-9.138;2024-02-21T04:45:22;9.10;;;4.30;;
82163;SDS011;71736;38.734;-9.138;2024-02-21T04:47:48;9.70;;;4.90;;
82163;SDS011;71736;38.734;-9.138;2024-02-21T04:50:13;7.90;;;4.00;;
82163;SDS011;71736;38.734;-9.138;2024-02-21T04:52:39;8.90;;;4.60;;
82163;SDS011;71736;38.734;-9.138;2024-02-21T04:55:05;7.30;;;4.40;;
82163;SDS011;71736;38.734;-9.138;2024-02-21T04:57:31;7.40;;;3.90;;
82163;SDS011;71736;38.734;-9.138;2024-02-21T04:59:57;7.70;;;4.30;;
82163;SDS011;71736;38.734;-9.138;2024-02-21T05:02:22;8.20;;;4.60;;
82163;SDS011;71736;38.734;-9.138;2024-02-21T05:04:49;9.20;;;4.30;;
82163;SDS011;71736;38.734;-9.138;2024-02-21T05:07:15;6.60;;;4.30;;
82163;SDS011;71736;38.734;-9.138;2024-02-21T05:09:44;10.20;;;4.80;;
82163;SDS011;71736;38.734;-9.138;2024-02-21T05:12:09;8.90;;;4.50;;
82163;SDS011;71736;38.734;-9.138;2024-02-21T05:14:35;10.30;;;5.00;;
82163;SDS011;71736;38.734;-9.138;2024-02-21T05:17:00;8.80;;;4.90;;
82163;SDS011;71736;38.734;-9.138;2024-02-21T05:19:26;9.80;;;4.40;;
82163;SDS011;71736;38.734;-9.138;2024-02-21T05:21:51;9.90;;;4.80;;
82163;SDS011;71736;38.734;-9.138;2024-02-21T05:24:17;10.20;;;4.80;;
82163;SDS011;71736;38.734;-9.138;2024-02-21T05:26:42;15.10;;;7.60;;
82163;SDS011;71736;38.734;-9.138;2024-02-21T05:29:08;11.60;;;6.30;;
82163;SDS011;71736;38.734;-9.138;2024-02-21T05:34:18;10.70;;;5.30;;
82163;SDS011;71736;38.734;-9.138;2024-02-21T05:36:44;8.70;;;4.90;;
82163;SDS011;71736;38.734;-9.138;2024-02-21T05:39:09;7.90;;;4.30;;
82163;SDS011;71736;38.734;-9.138;2024-02-21T05:41:35;15.00;;;5.50;;
82163;SDS011;71736;38.734;-9.138;2024-02-21T05:44:01;11.00;;;5.30;;
82163;SDS011;71736;38.734;-9.138;2024-02-21T05:46:26;13.20;;;5.70;;
82163;SDS011;71736;38.734;-9.138;2024-02-21T05:48:51;10.50;;;5.00;;
82163;SDS011;71736;38.734;-9.138;2024-02-21T05:51:17;11.70;;;5.20;;
82163;SDS011;71736;38.734;-9.138;2024-02-21T05:53:42;12.70;;;5.40;;
82163;SDS011;71736;38.734;-9.138;2024-02-21T05:56:11;9.20;;;5.30;;
82163;SDS011;71736;38.734;-9.138;2024-02-21T05:58:37;12.50;;;5.00;;
82163;SDS011;71736;38.734;-9.138;2024-02-21T06:01:03;7.80;;;4.90;;
82163;SDS011;71736;38.734;-9.138;2024-02-21T06:03:29;9.50;;;4.60;;
82163;SDS011;71736;38.734;-9.138;2024-02-21T06:05:55;13.30;;;5.40;;
82163;SDS011;71736;38.734;-9.138;2024-02-21T06:08:21;9.70;;;4.80;;
82163;SDS011;71736;38.734;-9.138;2024-02-21T06:10:47;8.70;;;5.00;;
82163;SDS011;71736;38.734;-9.138;2024-02-21T06:13:13;10.40;;;4.80;;
82163;SDS011;71736;38.734;-9.138;2024-02-21T06:15:39;10.80;;;5.10;;
82163;SDS011;71736;38.734;-9.138;2024-02-21T06:18:05;9.20;;;4.60;;
82163;SDS011;71736;38.734;-9.138;2024-02-21T06:20:31;10.10;;;5.30;;
82163;SDS011;71736;38.734;-9.138;2024-02-21T06:22:56;11.20;;;5.30;;
82163;SDS011;71736;38.734;-9.138;2024-02-21T06:25:22;13.60;;;5.80;;
82163;SDS011;71736;38.734;-9.138;2024-02-21T06:27:47;9.40;;;5.50;;
82163;SDS011;71736;38.734;-9.138;2024-02-21T06:30:13;7.70;;;4.60;;
82163;SDS011;71736;38.734;-9.138;2024-02-21T06:32:39;8.00;;;5.50;;
82163;SDS011;71736;38.734;-9.138;2024-02-21T06:35:04;8.70;;;4.70;;
82163;SDS011;71736;38.734;-9.138;2024-02-21T06:37:31;8.30;;;4.70;;
82163;SDS011;71736;38.734;-9.138;2024-02-21T06:39:57;9.10;;;4.50;;
82163;SDS011;71736;38.734;-9.138;2024-02-21T06:42:26;8.10;;;4.20;;
82163;SDS011;71736;38.734;-9.138;2024-02-21T06:44:52;7.40;;;4.30;;
82163;SDS011;71736;38.734;-9.138;2024-02-21T06:47:17;7.90;;;4.50;;
82163;SDS011;71736;38.734;-9.138;2024-02-21T06:49:43;9.80;;;4.70;;
82163;SDS011;71736;38.734;-9.138;2024-02-21T06:52:08;12.30;;;5.00;;
82163;SDS011;71736;38.734;-9.138;2024-02-21T06:54:34;8.90;;;4.80;;
82163;SDS011;71736;38.734;-9.138;2024-02-21T06:56:59;9.40;;;5.10;;
82163;SDS011;71736;38.734;-9.138;2024-02-21T06:59:25;8.30;;;4.30;;
82163;SDS011;71736;38.734;-9.138;2024-02-21T07:01:54;6.50;;;4.10;;
82163;SDS011;71736;38.734;-9.138;2024-02-21T07:04:22;7.40;;;4.80;;
82163;SDS011;71736;38.734;-9.138;2024-02-21T07:06:48;8.00;;;4.30;;
82163;SDS011;71736;38.734;-9.138;2024-02-21T07:09:13;8.70;;;4.20;;
82163;SDS011;71736;38.734;-9.138;2024-02-21T07:11:39;8.30;;;4.80;;
82163;SDS011;71736;38.734;-9.138;2024-02-21T07:14:04;10.00;;;5.00;;
82163;SDS011;71736;38.734;-9.138;2024-02-21T07:16:29;10.70;;;5.50;;
82163;SDS011;71736;38.734;-9.138;2024-02-21T07:18:57;12.30;;;5.10;;
82163;SDS011;71736;38.734;-9.138;2024-02-21T07:21:23;7.40;;;4.20;;
82163;SDS011;71736;38.734;-9.138;2024-02-21T07:23:49;7.80;;;4.50;;
82163;SDS011;71736;38.734;-9.138;2024-02-21T07:26:14;11.90;;;4.80;;
82163;SDS011;71736;38.734;-9.138;2024-02-21T07:28:39;9.60;;;4.40;;
82163;SDS011;71736;38.734;-9.138;2024-02-21T07:31:05;8.60;;;5.10;;
82163;SDS011;71736;38.734;-9.138;2024-02-21T07:33:30;10.70;;;5.10;;
82163;SDS011;71736;38.734;-9.138;2024-02-21T07:35:56;9.10;;;4.40;;
82163;SDS011;71736;38.734;-9.138;2024-02-21T07:38:22;12.20;;;4.70;;
82163;SDS011;71736;38.734;-9.138;2024-02-21T07:40:47;10.40;;;5.30;;
82163;SDS011;71736;38.734;-9.138;2024-02-21T07:43:13;13.70;;;5.10;;
82163;SDS011;71736;38.734;-9.138;2024-02-21T07:45:38;10.70;;;5.30;;
82163;SDS011;71736;38.734;-9.138;2024-02-21T07:48:05;9.70;;;4.80;;
82163;SDS011;71736;38.734;-9.138;2024-02-21T07:50:31;7.10;;;4.40;;
82163;SDS011;71736;38.734;-9.138;2024-02-21T07:52:57;13.60;;;5.10;;
82163;SDS011;71736;38.734;-9.138;2024-02-21T07:55:22;10.20;;;5.10;;
82163;SDS011;71736;38.734;-9.138;2024-02-21T07:57:48;15.00;;;5.30;;
82163;SDS011;71736;38.734;-9.138;2024-02-21T08:00:14;10.20;;;4.70;;
82163;SDS011;71736;38.734;-9.138;2024-02-21T08:02:50;10.60;;;5.10;;
82163;SDS011;71736;38.734;-9.138;2024-02-21T08:05:16;9.40;;;5.20;;
82163;SDS011;71736;38.734;-9.138;2024-02-21T08:07:42;11.50;;;5.40;;
82163;SDS011;71736;38.734;-9.138;2024-02-21T08:10:07;9.40;;;5.50;;
82163;SDS011;71736;38.734;-9.138;2024-02-21T08:12:33;9.30;;;4.80;;
82163;SDS011;71736;38.734;-9.138;2024-02-21T08:14:59;9.40;;;5.20;;
82163;SDS011;71736;38.734;-9.138;2024-02-21T08:17:25;9.80;;;5.20;;
82163;SDS011;71736;38.734;-9.138;2024-02-21T08:19:51;12.70;;;5.00;;
82163;SDS011;71736;38.734;-9.138;2024-02-21T08:22:16;11.00;;;5.50;;
82163;SDS011;71736;38.734;-9.138;2024-02-21T08:24:41;12.10;;;6.10;;
82163;SDS011;71736;38.734;-9.138;2024-02-21T08:27:07;9.10;;;5.40;;
82163;SDS011;71736;38.734;-9.138;2024-02-21T08:29:32;10.70;;;5.40;;
82163;SDS011;71736;38.734;-9.138;2024-02-21T08:31:58;13.90;;;6.70;;
82163;SDS011;71736;38.734;-9.138;2024-02-21T08:34:23;11.10;;;6.00;;
82163;SDS011;71736;38.734;-9.138;2024-02-21T08:36:49;13.50;;;6.90;;
82163;SDS011;71736;38.734;-9.138;2024-02-21T08:39:15;14.60;;;6.70;;
82163;SDS011;71736;38.734;-9.138;2024-02-21T08:41:43;12.50;;;6.60;;
82163;SDS011;71736;38.734;-9.138;2024-02-21T08:44:09;12.20;;;6.90;;
82163;SDS011;71736;38.734;-9.138;2024-02-21T08:46:34;14.70;;;7.20;;
82163;SDS011;71736;38.734;-9.138;2024-02-21T08:49:03;13.10;;;7.00;;
82163;SDS011;71736;38.734;-9.138;2024-02-21T08:51:28;13.60;;;6.10;;
82163;SDS011;71736;38.734;-9.138;2024-02-21T08:53:54;9.50;;;4.50;;
82163;SDS011;71736;38.734;-9.138;2024-02-21T08:56:20;8.80;;;3.60;;
82163;SDS011;71736;38.734;-9.138;2024-02-21T08:58:46;6.80;;;3.50;;
82163;SDS011;71736;38.734;-9.138;2024-02-21T09:01:12;11.00;;;4.40;;
82163;SDS011;71736;38.734;-9.138;2024-02-21T09:03:38;5.40;;;3.40;;
82163;SDS011;71736;38.734;-9.138;2024-02-21T09:06:04;6.90;;;3.60;;
82163;SDS011;71736;38.734;-9.138;2024-02-21T09:08:30;8.40;;;5.10;;
82163;SDS011;71736;38.734;-9.138;2024-02-21T09:10:56;10.30;;;4.70;;
82163;SDS011;71736;38.734;-9.138;2024-02-21T09:13:22;9.00;;;4.30;;
82163;SDS011;71736;38.734;-9.138;2024-02-21T09:15:48;8.40;;;5.20;;
82163;SDS011;71736;38.734;-9.138;2024-02-21T09:18:14;9.10;;;4.60;;
82163;SDS011;71736;38.734;-9.138;2024-02-21T09:20:41;8.60;;;5.00;;
82163;SDS011;71736;38.734;-9.138;2024-02-21T09:23:07;9.40;;;4.10;;
82163;SDS011;71736;38.734;-9.138;2024-02-21T09:25:32;8.80;;;4.60;;
82163;SDS011;71736;38.734;-9.138;2024-02-21T09:28:00;9.90;;;4.80;;
82163;SDS011;71736;38.734;-9.138;2024-02-21T09:30:27;10.20;;;5.90;;
82163;SDS011;71736;38.734;-9.138;2024-02-21T09:32:52;11.50;;;5.40;;
82163;SDS011;71736;38.734;-9.138;2024-02-21T09:35:18;9.20;;;5.20;;
82163;SDS011;71736;38.734;-9.138;2024-02-21T09:37:44;8.00;;;5.00;;
82163;SDS011;71736;38.734;-9.138;2024-02-21T09:40:09;10.60;;;5.80;;
82163;SDS011;71736;38.734;-9.138;2024-02-21T09:45:08;11.60;;;6.00;;
82163;SDS011;71736;38.734;-9.138;2024-02-21T09:50:16;17.80;;;6.60;;
82163;SDS011;71736;38.734;-9.138;2024-02-21T09:52:43;14.10;;;6.90;;
82163;SDS011;71736;38.734;-9.138;2024-02-21T09:55:09;12.20;;;7.20;;
82163;SDS011;71736;38.734;-9.138;2024-02-21T09:57:37;14.30;;;6.60;;
82163;SDS011;71736;38.734;-9.138;2024-02-21T10:00:04;13.00;;;6.70;;
82163;SDS011;71736;38.734;-9.138;2024-02-21T10:02:33;11.10;;;7.10;;
82163;SDS011;71736;38.734;-9.138;2024-02-21T10:04:59;11.70;;;6.60;;
82163;SDS011;71736;38.734;-9.138;2024-02-21T10:07:24;13.70;;;6.70;;
82163;SDS011;71736;38.734;-9.138;2024-02-21T10:10:03;11.10;;;6.20;;
82163;SDS011;71736;38.734;-9.138;2024-02-21T10:12:29;12.40;;;7.50;;
82163;SDS011;71736;38.734;-9.138;2024-02-21T10:15:04;12.60;;;6.10;;
82163;SDS011;71736;38.734;-9.138;2024-02-21T10:17:31;12.30;;;7.20;;
82163;SDS011;71736;38.734;-9.138;2024-02-21T10:20:09;11.00;;;6.20;;
82163;SDS011;71736;38.734;-9.138;2024-02-21T10:22:37;12.00;;;7.20;;
82163;SDS011;71736;38.734;-9.138;2024-02-21T10:25:22;11.90;;;6.60;;
82163;SDS011;71736;38.734;-9.138;2024-02-21T10:27:48;11.70;;;6.40;;
82163;SDS011;71736;38.734;-9.138;2024-02-21T10:30:14;11.10;;;6.00;;
82163;SDS011;71736;38.734;-9.138;2024-02-21T10:32:49;12.30;;;7.10;;
82163;SDS011;71736;38.734;-9.138;2024-02-21T10:35:24;10.40;;;7.00;;
82163;SDS011;71736;38.734;-9.138;2024-02-21T10:37:55;11.70;;;6.30;;
82163;SDS011;71736;38.734;-9.138;2024-02-21T10:40:29;13.80;;;6.60;;
82163;SDS011;71736;38.734;-9.138;2024-02-21T10:42:59;12.00;;;8.10;;
82163;SDS011;71736;38.734;-9.138;2024-02-21T10:45:31;13.50;;;6.40;;
82163;SDS011;71736;38.734;-9.138;2024-02-21T10:48:01;12.00;;;6.60;;
82163;SDS011;71736;38.734;-9.138;2024-02-21T10:50:57;10.50;;;5.80;;
82163;SDS011;71736;38.734;-9.138;2024-02-21T10:53:54;12.00;;;6.40;;
82163;SDS011;71736;38.734;-9.138;2024-02-21T10:56:30;11.30;;;6.00;;
82163;SDS011;71736;38.734;-9.138;2024-02-21T10:59:00;11.80;;;7.30;;
82163;SDS011;71736;38.734;-9.138;2024-02-21T11:01:26;8.50;;;6.60;;
82163;SDS011;71736;38.734;-9.138;2024-02-21T11:03:54;12.60;;;6.80;;
82163;SDS011;71736;38.734;-9.138;2024-02-21T11:06:21;15.90;;;8.00;;
82163;SDS011;71736;38.734;-9.138;2024-02-21T11:08:47;10.40;;;6.70;;
82163;SDS011;71736;38.734;-9.138;2024-02-21T11:11:15;12.50;;;7.80;;
82163;SDS011;71736;38.734;-9.138;2024-02-21T11:13:46;10.20;;;7.00;;
82163;SDS011;71736;38.734;-9.138;2024-02-21T11:16:12;9.80;;;6.50;;
82163;SDS011;71736;38.734;-9.138;2024-02-21T11:18:46;14.40;;;7.90;;
82163;SDS011;71736;38.734;-9.138;2024-02-21T11:21:12;11.30;;;7.10;;
82163;SDS011;71736;38.734;-9.138;2024-02-21T11:23:37;14.70;;;8.40;;
82163;SDS011;71736;38.734;-9.138;2024-02-21T11:26:10;13.40;;;7.90;;
82163;SDS011;71736;38.734;-9.138;2024-02-21T11:28:36;12.00;;;8.30;;
82163;SDS011;71736;38.734;-9.138;2024-02-21T11:31:09;12.40;;;7.20;;
82163;SDS011;71736;38.734;-9.138;2024-02-21T11:33:39;10.60;;;6.70;;
82163;SDS011;71736;38.734;-9.138;2024-02-21T11:36:06;15.00;;;8.80;;
82163;SDS011;71736;38.734;-9.138;2024-02-21T11:38:32;14.10;;;7.30;;
82163;SDS011;71736;38.734;-9.138;2024-02-21T11:40:58;17.70;;;7.20;;
82163;SDS011;71736;38.734;-9.138;2024-02-21T11:43:23;15.60;;;8.30;;
82163;SDS011;71736;38.734;-9.138;2024-02-21T11:45:49;16.40;;;8.90;;
82163;SDS011;71736;38.734;-9.138;2024-02-21T11:48:15;13.10;;;7.50;;
82163;SDS011;71736;38.734;-9.138;2024-02-21T11:50:40;13.20;;;7.40;;
82163;SDS011;71736;38.734;-9.138;2024-02-21T11:53:06;13.30;;;7.40;;
82163;SDS011;71736;38.734;-9.138;2024-02-21T11:55:32;15.90;;;8.10;;
82163;SDS011;71736;38.734;-9.138;2024-02-21T11:57:57;15.50;;;8.60;;
82163;SDS011;71736;38.734;-9.138;2024-02-21T12:00:23;12.00;;;7.30;;
82163;SDS011;71736;38.734;-9.138;2024-02-21T12:02:50;14.40;;;8.10;;
82163;SDS011;71736;38.734;-9.138;2024-02-21T12:05:16;14.50;;;7.40;;
82163;SDS011;71736;38.734;-9.138;2024-02-21T12:07:41;14.30;;;7.70;;
82163;SDS011;71736;38.734;-9.138;2024-02-21T12:10:10;12.60;;;8.20;;
82163;SDS011;71736;38.734;-9.138;2024-02-21T12:12:37;13.80;;;7.00;;
82163;SDS011;71736;38.734;-9.138;2024-02-21T12:15:06;13.70;;;7.90;;
82163;SDS011;71736;38.734;-9.138;2024-02-21T12:17:33;14.00;;;8.00;;
82163;SDS011;71736;38.734;-9.138;2024-02-21T12:20:00;14.30;;;7.80;;
82163;SDS011;71736;38.734;-9.138;2024-02-21T12:22:25;9.80;;;6.00;;
82163;SDS011;71736;38.734;-9.138;2024-02-21T12:24:52;10.30;;;6.90;;
82163;SDS011;71736;38.734;-9.138;2024-02-21T12:27:17;13.10;;;6.50;;
82163;SDS011;71736;38.734;-9.138;2024-02-21T12:29:43;9.90;;;5.80;;
82163;SDS011;71736;38.734;-9.138;2024-02-21T12:32:08;16.90;;;7.90;;
82163;SDS011;71736;38.734;-9.138;2024-02-21T12:34:34;10.30;;;5.20;;
82163;SDS011;71736;38.734;-9.138;2024-02-21T12:37:01;12.30;;;7.30;;
82163;SDS011;71736;38.734;-9.138;2024-02-21T12:39:28;15.70;;;8.50;;
82163;SDS011;71736;38.734;-9.138;2024-02-21T12:41:54;10.10;;;6.10;;
82163;SDS011;71736;38.734;-9.138;2024-02-21T12:44:21;12.20;;;7.00;;
82163;SDS011;71736;38.734;-9.138;2024-02-21T12:46:46;14.70;;;6.80;;
82163;SDS011;71736;38.734;-9.138;2024-02-21T12:49:17;13.70;;;6.50;;
82163;SDS011;71736;38.734;-9.138;2024-02-21T12:51:43;14.00;;;6.30;;
82163;SDS011;71736;38.734;-9.138;2024-02-21T12:54:08;13.20;;;6.80;;
82163;SDS011;71736;38.734;-9.138;2024-02-21T12:56:36;12.30;;;5.60;;
82163;SDS011;71736;38.734;-9.138;2024-02-21T12:59:03;12.60;;;6.70;;
82163;SDS011;71736;38.734;-9.138;2024-02-21T13:01:28;11.40;;;5.30;;
82163;SDS011;71736;38.734;-9.138;2024-02-21T13:03:54;14.20;;;6.30;;
82163;SDS011;71736;38.734;-9.138;2024-02-21T13:06:20;12.50;;;4.70;;
82163;SDS011;71736;38.734;-9.138;2024-02-21T13:08:46;10.00;;;5.50;;
82163;SDS011;71736;38.734;-9.138;2024-02-21T13:11:12;11.50;;;5.40;;
82163;SDS011;71736;38.734;-9.138;2024-02-21T13:13:38;9.30;;;4.60;;
82163;SDS011;71736;38.734;-9.138;2024-02-21T13:16:03;10.30;;;5.20;;
82163;SDS011;71736;38.734;-9.138;2024-02-21T13:18:29;15.70;;;6.70;;
82163;SDS011;71736;38.734;-9.138;2024-02-21T13:20:55;12.50;;;4.20;;
82163;SDS011;71736;38.734;-9.138;2024-02-21T13:23:21;10.00;;;5.50;;
82163;SDS011;71736;38.734;-9.138;2024-02-21T13:25:46;10.50;;;4.10;;
82163;SDS011;71736;38.734;-9.138;2024-02-21T13:28:12;15.90;;;5.40;;
82163;SDS011;71736;38.734;-9.138;2024-02-21T13:30:38;10.70;;;4.70;;
82163;SDS011;71736;38.734;-9.138;2024-02-21T13:33:05;12.90;;;4.30;;
82163;SDS011;71736;38.734;-9.138;2024-02-21T13:35:32;13.80;;;4.80;;
82163;SDS011;71736;38.734;-9.138;2024-02-21T13:37:58;11.40;;;3.40;;
82163;SDS011;71736;38.734;-9.138;2024-02-21T13:40:23;13.90;;;4.70;;
82163;SDS011;71736;38.734;-9.138;2024-02-21T13:42:50;12.00;;;4.20;;
82163;SDS011;71736;38.734;-9.138;2024-02-21T13:45:16;9.30;;;3.90;;
82163;SDS011;71736;38.734;-9.138;2024-02-21T13:47:42;12.70;;;5.10;;
82163;SDS011;71736;38.734;-9.138;2024-02-21T13:50:07;10.80;;;3.90;;
82163;SDS011;71736;38.734;-9.138;2024-02-21T13:52:37;16.50;;;6.20;;
82163;SDS011;71736;38.734;-9.138;2024-02-21T13:55:03;14.20;;;4.90;;
82163;SDS011;71736;38.734;-9.138;2024-02-21T13:57:28;13.40;;;4.30;;
82163;SDS011;71736;38.734;-9.138;2024-02-21T13:59:54;10.10;;;3.80;;
82163;SDS011;71736;38.734;-9.138;2024-02-21T14:02:19;13.00;;;4.20;;
82163;SDS011;71736;38.734;-9.138;2024-02-21T14:04:46;10.80;;;4.00;;
82163;SDS011;71736;38.734;-9.138;2024-02-21T14:07:12;10.90;;;3.60;;
82163;SDS011;71736;38.734;-9.138;2024-02-21T14:09:38;7.40;;;3.60;;
82163;SDS011;71736;38.734;-9.138;2024-02-21T14:12:03;14.60;;;4.50;;
82163;SDS011;71736;38.734;-9.138;2024-02-21T14:14:33;9.60;;;2.90;;
82163;SDS011;71736;38.734;-9.138;2024-02-21T14:17:02;12.70;;;3.90;;
82163;SDS011;71736;38.734;-9.138;2024-02-21T14:19:29;8.00;;;2.80;;
82163;SDS011;71736;38.734;-9.138;2024-02-21T14:21:55;8.00;;;2.80;;
82163;SDS011;71736;38.734;-9.138;2024-02-21T14:24:22;7.40;;;2.50;;
82163;SDS011;71736;38.734;-9.138;2024-02-21T14:26:48;9.20;;;2.90;;
82163;SDS011;71736;38.734;-9.138;2024-02-21T14:29:14;7.50;;;2.30;;